aviador You're here:

YSSY Decoded Metar

SYDNEY in AUSTRALIA
Report Time2017-08-24 01:00:00
UTC Time2017-08-24 01:12:45
Flight Rules vfr VFR
Wind200° at 19 kt
W.Decomp.*RWY 16: 16.8 kt HW 8.9 kt RCW
RWY 25: 8.9 kt HW 16.8 kt LCW
W.Rank200° ranks 16
Current wind is above 200° avg. (13.9)
Visibility9999 m
Phenomena:N/A
Clouds:Few 030 Hf
Expected CloudBase > 2,400 ft AGL from Temp-Dew spread
CeilingNone
Temp16°C (ISA +1)
Dew Point10°C (68% RH)
AAT9.2°C
QNH1017 hPa
Density Alt161 ft
Elevation10 ft
Report Wrong Elevation
Raw Report
METAR YSSY 240100Z 20019KT 9999 FEW030 16/10 Q1017
NOSIG=

Extra information for YSSY:More info

Metar Taf Metar & Taf Last 4 Metars F.Rules Stats Wind Profile Meteogram Temp Stats Airport Information Weather charts Add Link Nearby VenuesMetar ALERT Operation Metar Decoded Social comments